Time;durP1;ratioP1;P1;durP2;ratioP2;P2;SDS_P1;SDS_P2;PMS_P1;PMS_P2;Temp;Humidity;BMP_temperature;BMP_pressure;BME280_temperature;BME280_humidity;BME280_pressure;Samples;Min_cycle;Max_cycle;Signal;HPM_P1;HPM_P2
2022/06/01 00:01:29;;;;;;;0.50;0.10;;;;;;;;;;5095551;28;20044;-75
2022/06/01 00:03:56;;;;;;;1.05;0.30;;;;;;;;;;5095329;28;20020;-76
2022/06/01 00:06:24;;;;;;;5.90;0.40;;;;;;;;;;5095798;28;20498;-76
2022/06/01 00:08:51;;;;;;;2.70;0.20;;;;;;;;;;5094074;28;20484;-75
2022/06/01 00:11:18;;;;;;;0.73;0.15;;;;;;;;;;5094213;28;20097;-77
2022/06/01 00:13:45;;;;;;;0.77;0.20;;;;;;;;;;5093838;28;20024;-75
2022/06/01 00:16:13;;;;;;;2.83;0.30;;;;;;;;;;5095387;28;20044;-77
2022/06/01 00:18:40;;;;;;;2.75;0.40;;;;;;;;;;5095171;28;20020;-77
2022/06/01 00:21:08;;;;;;;0.95;0.10;;;;;;;;;;5095559;28;20052;-76
2022/06/01 00:23:36;;;;;;;0.63;0.20;;;;;;;;;;5095063;28;20020;-75
2022/06/01 00:26:03;;;;;;;1.35;0.75;;;;;;;;;;5095095;28;20016;-77
2022/06/01 00:28:31;;;;;;;0.30;0.20;;;;;;;;;;5093704;28;20023;-76
2022/06/01 00:30:59;;;;;;;1.40;0.30;;;;;;;;;;5096431;28;20023;-74
2022/06/01 00:36:23;;;;;;;0.95;0.20;;;;;;;;;;5496793;23;20084;-73
2022/06/01 00:38:50;;;;;;;0.57;0.10;;;;;;;;;;5033258;28;20034;-72
2022/06/01 00:41:18;;;;;;;1.05;0.10;;;;;;;;;;5033245;28;20435;-72
2022/06/01 00:43:46;;;;;;;0.30;0.10;;;;;;;;;;5034638;28;20028;-71
2022/06/01 00:46:14;;;;;;;1.23;0.28;;;;;;;;;;5033020;28;20508;-73
2022/06/01 00:48:43;;;;;;;0.60;0.17;;;;;;;;;;5033197;28;20388;-71
2022/06/01 00:51:10;;;;;;;2.03;0.10;;;;;;;;;;5033009;28;20508;-71
2022/06/01 00:53:39;;;;;;;0.88;0.25;;;;;;;;;;5034431;28;20017;-72
2022/06/01 00:56:09;;;;;;;3.30;0.28;;;;;;;;;;5033055;28;20091;-72
2022/06/01 00:58:38;;;;;;;2.33;0.25;;;;;;;;;;5034311;28;20026;-70
2022/06/01 01:01:08;;;;;;;1.20;0.05;;;;;;;;;;5032883;28;20056;-72
2022/06/01 01:03:37;;;;;;;1.50;0.15;;;;;;;;;;5034353;28;20105;-72
2022/06/01 01:06:04;;;;;;;0.75;0.10;;;;;;;;;;5034016;28;20017;-71
2022/06/01 01:08:32;;;;;;;1.38;0.20;;;;;;;;;;5034130;28;20032;-71
2022/06/01 01:10:59;;;;;;;0.55;0.10;;;;;;;;;;5032634;28;20026;-72
2022/06/01 01:13:26;;;;;;;3.40;0.75;;;;;;;;;;5034193;28;20121;-70
2022/06/01 01:15:58;;;;;;;0.75;0.20;;;;;;;;;;5034012;28;20436;-71
2022/06/01 01:18:43;;;;;;;0.88;0.20;;;;;;;;;;5033502;28;20041;-73
2022/06/01 01:21:32;;;;;;;3.40;0.38;;;;;;;;;;5034055;28;20029;-71
2022/06/01 01:24:07;;;;;;;1.17;0.10;;;;;;;;;;5032424;28;20029;-72
2022/06/01 01:26:36;;;;;;;1.17;0.35;;;;;;;;;;5033836;28;20104;-73
2022/06/01 01:29:12;;;;;;;2.05;0.30;;;;;;;;;;5032349;28;20127;-71
2022/06/01 01:31:40;;;;;;;4.63;0.57;;;;;;;;;;5032234;28;20027;-71
2022/06/01 01:34:09;;;;;;;2.63;0.40;;;;;;;;;;5033800;28;20034;-72
2022/06/01 01:36:42;;;;;;;1.45;0.20;;;;;;;;;;5033358;28;20046;-72
2022/06/01 01:39:13;;;;;;;1.65;0.20;;;;;;;;;;5032042;28;20032;-71
2022/06/01 01:41:39;;;;;;;;;;;;;;;;;;5033778;28;20034;-71
2022/06/01 01:44:14;;;;;;;0.55;0.10;;;;;;;;;;5033488;28;20272;-69
2022/06/01 01:46:47;;;;;;;2.05;0.40;;;;;;;;;;5033599;28;20495;-71
2022/06/01 01:49:19;;;;;;;2.38;0.30;;;;;;;;;;5034034;28;20362;-72
2022/06/01 01:51:46;;;;;;;2.20;0.22;;;;;;;;;;5033285;28;20489;-72
2022/06/01 01:54:24;;;;;;;2.13;0.20;;;;;;;;;;5033343;28;20054;-71
2022/06/01 01:57:10;;;;;;;1.95;0.20;;;;;;;;;;5032051;28;20095;-69
2022/06/01 02:00:06;;;;;;;2.25;0.30;;;;;;;;;;5033549;28;20025;-71
2022/06/01 02:02:51;;;;;;;2.05;0.13;;;;;;;;;;5030195;28;20400;-71
2022/06/01 02:08:17;;;;;;;1.00;0.20;;;;;;;;;;5033422;28;20068;-71
2022/06/01 02:13:51;;;;;;;1.45;0.17;;;;;;;;;;5011338;28;20418;-71
2022/06/01 02:16:19;;;;;;;0.47;0.17;;;;;;;;;;4994720;28;20026;-71
2022/06/01 02:18:49;;;;;;;1.00;0.28;;;;;;;;;;5021916;28;20029;-70
2022/06/01 02:21:20;;;;;;;1.10;0.20;;;;;;;;;;5033046;28;20104;-71
2022/06/01 02:23:48;;;;;;;1.25;0.20;;;;;;;;;;5033486;28;20021;-71
2022/06/01 02:26:16;;;;;;;0.20;0.10;;;;;;;;;;5031746;28;20032;-71
2022/06/01 02:28:46;;;;;;;0.80;0.10;;;;;;;;;;5031720;28;20388;-70
2022/06/01 02:31:15;;;;;;;1.90;0.57;;;;;;;;;;5031634;28;20072;-70
2022/06/01 02:33:44;;;;;;;1.75;0.20;;;;;;;;;;5031626;28;20406;-70
2022/06/01 02:36:14;;;;;;;1.17;0.20;;;;;;;;;;5031437;28;20057;-71
2022/06/01 02:38:44;;;;;;;5.20;0.60;;;14.00;99.90;;;;;;5033238;28;20112;-71
2022/06/01 02:43:57;;;;;;;3.42;0.20;;;;;;;;;;5032877;28;20107;-70
2022/06/01 02:46:25;;;;;;;1.20;0.13;;;;;;;;;;5032829;28;20033;-71
2022/06/01 02:48:52;;;;;;;1.95;0.20;;;;;;;;;;5033020;28;20558;-71
2022/06/01 02:51:21;;;;;;;0.93;0.17;;;;;;;;;;5032990;28;20093;-70
2022/06/01 02:53:48;;;;;;;0.55;0.10;;;;;;;;;;5032683;28;20017;-70
2022/06/01 02:56:16;;;;;;;1.00;0.20;;;;;;;;;;5032894;28;20042;-71
2022/06/01 02:58:44;;;;;;;1.08;0.30;;;;;;;;;;5032826;28;20053;-70
2022/06/01 03:01:11;;;;;;;1.42;0.20;;;;;;;;;;5032879;28;20033;-69
2022/06/01 03:03:39;;;;;;;0.57;0.17;;;;;;;;;;5032540;28;20371;-70
2022/06/01 03:06:08;;;;;;;0.68;0.20;;;;;;;;;;5032694;28;20017;-70
2022/06/01 03:08:35;;;;;;;0.98;0.20;;;;;;;;;;5031268;28;20025;-72
2022/06/01 03:11:02;;;;;;;1.15;0.30;;;;;;;;;;5032577;28;20393;-70
2022/06/01 03:13:30;;;;;;;1.48;0.30;;;;;;;;;;5032589;28;20022;-72
2022/06/01 03:15:58;;;;;;;0.68;0.20;;;13.90;91.80;;;;;;5031072;28;20033;-69
2022/06/01 03:18:25;;;;;;;0.28;0.10;;;14.20;92.70;;;;;;5031110;28;20473;-70
2022/06/01 03:20:53;;;;;;;1.02;0.25;;;14.50;92.40;;;;;;5032453;28;20520;-70
2022/06/01 03:23:20;;;;;;;2.38;0.38;;;14.50;92.30;;;;;;5035528;28;20056;-71
2022/06/01 03:25:48;;;;;;;1.77;0.30;;;14.50;93.00;;;;;;5035948;28;20021;-70
2022/06/01 03:28:16;;;;;;;3.33;0.30;;;14.30;96.10;;;;;;5035916;28;20087;-69
2022/06/01 03:30:44;;;;;;;0.75;0.22;;;14.20;96.10;;;;;;5035824;28;20029;-69
2022/06/01 03:33:13;;;;;;;1.17;0.43;;;14.20;96.10;;;;;;5035827;28;20033;-69
2022/06/01 03:35:41;;;;;;;0.80;0.35;;;14.20;96.20;;;;;;5034099;28;20061;-69
2022/06/01 03:38:08;;;;;;;1.15;0.22;;;14.20;96.70;;;;;;5034600;28;20029;-69
2022/06/01 03:40:42;;;;;;;1.60;0.43;;;14.40;96.80;;;;;;5034377;28;20116;-69
2022/06/01 03:43:11;;;;;;;1.95;0.30;;;14.40;96.80;;;;;;5034355;28;20029;-70
2022/06/01 03:48:28;;;;;;;1.10;0.20;;;14.40;96.30;;;;;;5035887;28;20244;-69
2022/06/01 03:50:57;;;;;;;0.52;0.13;;;14.30;96.60;;;;;;5035485;28;20021;-69
2022/06/01 03:53:26;;;;;;;0.73;0.20;;;14.30;97.10;;;;;;5035639;28;20030;-68
2022/06/01 03:55:54;;;;;;;2.72;0.70;;;14.30;96.60;;;;;;5034030;28;20033;-69
2022/06/01 03:58:25;;;;;;;1.10;0.20;;;14.20;97.30;;;;;;5035399;28;20104;-69
2022/06/01 04:00:53;;;;;;;1.48;0.20;;;14.20;96.40;;;;;;5035263;28;20023;-69
2022/06/01 04:03:20;;;;;;;1.35;0.20;;;14.20;95.90;;;;;;5035356;28;20068;-69
2022/06/01 04:05:48;;;;;;;1.40;0.40;;;14.10;95.90;;;;;;5034072;28;20497;-69
2022/06/01 04:08:15;;;;;;;0.80;0.30;;;14.20;96.20;;;;;;5035281;28;20047;-69
2022/06/01 04:10:44;;;;;;;1.63;0.15;;;14.30;96.50;;;;;;5035134;28;20014;-68
2022/06/01 04:13:13;;;;;;;1.10;0.28;;;14.30;97.00;;;;;;5035097;28;20104;-69
2022/06/01 04:15:42;;;;;;;0.90;0.17;;;14.30;96.50;;;;;;5033665;28;20366;-70
2022/06/01 04:18:10;;;;;;;1.27;0.20;;;14.20;96.30;;;;;;5035627;28;20021;-69
2022/06/01 04:20:37;;;;;;;1.50;0.20;;;14.20;96.50;;;;;;5035079;28;20025;-70
2022/06/01 04:23:05;;;;;;;0.63;0.20;;;14.10;96.80;;;;;;5033533;28;20033;-70
2022/06/01 04:25:32;;;;;;;1.08;0.20;;;14.10;96.60;;;;;;5034847;28;20049;-69
2022/06/01 04:27:59;;;;;;;0.65;0.35;;;14.10;97.00;;;;;;5034883;28;20075;-70
2022/06/01 04:30:27;;;;;;;1.92;0.20;;;14.10;97.50;;;;;;5034917;28;20504;-69
2022/06/01 04:32:56;;;;;;;1.85;0.60;;;14.00;96.80;;;;;;5034331;28;20418;-69
2022/06/01 04:35:24;;;;;;;1.88;0.30;;;14.00;97.10;;;;;;5032988;28;20036;-70
2022/06/01 04:37:52;;;;;;;2.25;0.38;;;13.90;97.50;;;;;;5034755;28;20037;-70
2022/06/01 04:40:24;;;;;;;3.83;0.30;;;13.80;97.10;;;;;;5034634;28;20033;-70
2022/06/01 04:42:51;;;;;;;4.07;0.32;;;;;;;;;;5034980;28;20061;-70
2022/06/01 04:45:19;;;;;;;0.43;0.25;;;;;;;;;;5034640;28;20095;-69
2022/06/01 04:47:46;;;;;;;1.40;0.20;;;;;;;;;;5034501;28;20522;-70
2022/06/01 04:50:13;;;;;;;2.15;0.40;;;;;;;;;;5034856;28;20017;-69
2022/06/01 04:52:41;;;;;;;0.57;0.20;;;13.30;91.50;;;;;;5034700;28;20472;-71
2022/06/01 04:55:09;;;;;;;2.90;0.40;;;13.40;98.70;;;;;;5033092;28;20386;-68
2022/06/01 04:57:37;;;;;;;1.90;0.50;;;13.30;96.60;;;;;;5034466;28;20029;-70
2022/06/01 05:00:05;;;;;;;1.35;0.20;;;13.40;97.90;;;;;;5034189;28;20021;-71
2022/06/01 05:02:32;;;;;;;1.95;0.10;;;13.40;97.40;;;;;;5033993;28;20457;-71
2022/06/01 05:04:59;;;;;;;1.38;0.20;;;13.30;99.00;;;;;;5034217;28;20087;-70
2022/06/01 05:07:27;;;;;;;1.60;0.32;;;13.30;97.20;;;;;;5034067;28;20438;-69
2022/06/01 05:09:54;;;;;;;1.48;0.28;;;13.30;96.50;;;;;;5032767;28;20613;-69
2022/06/01 05:12:22;;;;;;;1.85;0.80;;;13.30;94.20;;;;;;5032582;28;20025;-70
2022/06/01 05:14:49;;;;;;;1.65;0.60;;;13.30;94.50;;;;;;5033948;28;20025;-70
2022/06/01 05:17:16;;;;;;;1.38;0.40;;;13.30;97.00;;;;;;5034362;28;20511;-70
2022/06/01 05:19:44;;;;;;;1.48;0.50;;;13.20;96.70;;;;;;5033938;28;20025;-68
2022/06/01 05:22:11;;;;;;;1.52;0.50;;;13.20;96.90;;;;;;5032485;28;20063;-70
2022/06/01 05:24:39;;;;;;;2.10;0.43;;;13.30;97.50;;;;;;5032382;28;20022;-69
2022/06/01 05:27:07;;;;;;;1.13;0.57;;;13.20;97.50;;;;;;5033825;28;20095;-69
2022/06/01 05:29:35;;;;;;;1.23;0.60;;;13.30;97.60;;;;;;5032674;28;20021;-69
2022/06/01 05:32:03;;;;;;;1.63;0.60;;;13.20;98.80;;;;;;5033661;28;20018;-70
2022/06/01 05:34:30;;;;;;;3.35;0.70;;;13.20;99.00;;;;;;5033492;28;20026;-69
2022/06/01 05:36:58;;;;;;;3.38;0.50;;;13.20;99.20;;;;;;5032021;28;20140;-69
2022/06/01 05:39:25;;;;;;;2.40;0.95;;;13.10;99.90;;;;;;5032101;28;20473;-69
2022/06/01 05:41:53;;;;;;;2.47;0.45;;;13.10;99.90;;;;;;5033544;28;20026;-70
2022/06/01 05:44:21;;;;;;;2.28;0.47;;;13.10;99.90;;;;;;5032716;28;20025;-69
2022/06/01 05:46:55;;;;;;;1.73;0.50;;;13.10;99.90;;;;;;5033422;28;20405;-68
2022/06/01 05:49:22;;;;;;;1.83;0.63;;;13.00;99.90;;;;;;5033438;28;20392;-68
2022/06/01 05:51:50;;;;;;;3.00;0.60;;;13.00;99.90;;;;;;5033679;28;20489;-69
2022/06/01 05:54:19;;;;;;;1.58;0.68;;;12.90;99.90;;;;;;5033287;28;20026;-68
2022/06/01 05:56:46;;;;;;;1.67;0.70;;;12.90;99.90;;;;;;5033259;28;20021;-69
2022/06/01 05:59:14;;;;;;;1.98;0.45;;;12.90;99.90;;;;;;5033420;28;20044;-69
2022/06/01 06:01:42;;;;;;;2.25;0.70;;;12.90;99.70;;;;;;5033200;28;20083;-70
2022/06/01 06:04:10;;;;;;;2.47;0.80;;;12.80;99.90;;;;;;5033150;28;20371;-70
2022/06/01 06:06:40;;;;;;;2.83;0.90;;;12.70;99.90;;;;;;5033229;28;20520;-69
2022/06/01 06:09:09;;;;;;;1.50;0.70;;;12.70;99.90;;;;;;5033076;28;20018;-71
2022/06/01 06:11:40;;;;;;;3.30;0.88;;;12.60;99.90;;;;;;5033130;28;20101;-71
2022/06/01 06:14:07;;;;;;;;;;;12.70;99.90;;;;;;5033521;28;20024;-70
2022/06/01 06:16:46;;;;;;;3.97;0.80;;;12.70;99.90;;;;;;5033035;28;19905;-70
2022/06/01 06:19:15;;;;;;;2.80;0.50;;;12.60;99.90;;;;;;5031720;28;20475;-69
2022/06/01 06:21:44;;;;;;;0.88;0.70;;;12.60;99.90;;;;;;5031623;28;20025;-71
2022/06/01 06:24:15;;;;;;;3.58;0.60;;;12.60;99.90;;;;;;5032712;28;20031;-71
2022/06/01 06:26:43;;;;;;;1.60;0.35;;;12.50;99.90;;;;;;5031573;28;20053;-69
2022/06/01 06:29:12;;;;;;;1.00;0.30;;;12.50;99.90;;;;;;5033319;28;20087;-70
2022/06/01 06:31:40;;;;;;;1.42;0.40;;;12.50;99.90;;;;;;5032890;28;20032;-69
2022/06/01 06:34:08;;;;;;;1.23;0.40;;;12.50;99.90;;;;;;5032922;28;20108;-69
2022/06/01 06:36:35;;;;;;;2.45;0.40;;;12.50;99.90;;;;;;5031308;28;20053;-69
2022/06/01 06:39:04;;;;;;;1.27;0.30;;;12.50;99.90;;;;;;5032766;28;20115;-69
2022/06/01 06:41:31;;;;;;;1.42;0.50;;;12.50;99.90;;;;;;5032830;28;20033;-69
2022/06/01 06:43:59;;;;;;;2.00;0.40;;;12.50;99.90;;;;;;5032645;28;20079;-70
2022/06/01 06:46:26;;;;;;;2.05;0.32;;;12.40;99.90;;;;;;5031435;28;20366;-69
2022/06/01 06:48:53;;;;;;;1.98;0.43;;;12.40;99.90;;;;;;5033045;28;20495;-71
2022/06/01 06:51:21;;;;;;;2.75;0.57;;;12.30;99.90;;;;;;5031324;28;20064;-69
2022/06/01 06:53:49;;;;;;;2.90;0.40;;;12.20;99.90;;;;;;5032707;28;20026;-70
2022/06/01 06:56:19;;;;;;;2.10;0.43;;;12.10;99.90;;;;;;5032789;28;20025;-70
2022/06/01 06:58:46;;;;;;;1.87;0.40;;;12.10;99.90;;;;;;5036613;28;20026;-70
2022/06/01 07:01:14;;;;;;;0.90;0.40;;;12.00;99.90;;;;;;5036345;28;20025;-70
2022/06/01 07:03:41;;;;;;;1.02;0.32;;;12.00;99.90;;;;;;5036194;28;20405;-71
2022/06/01 07:06:17;;;;;;;3.20;0.60;;;11.90;99.90;;;;;;5036326;28;20028;-71
2022/06/01 07:08:47;;;;;;;2.85;0.65;;;11.90;99.90;;;;;;5036398;28;20028;-69
2022/06/01 07:11:16;;;;;;;0.97;0.50;;;11.80;99.90;;;;;;5036269;28;20424;-69
2022/06/01 07:13:44;;;;;;;1.50;0.60;;;11.80;99.90;;;;;;5034853;28;20336;-71
2022/06/01 07:16:15;;;;;;;1.60;0.57;;;11.70;99.90;;;;;;5036156;28;20072;-69
2022/06/01 07:18:45;;;;;;;1.90;0.32;;;11.80;99.90;;;;;;5034764;28;20060;-69
2022/06/01 07:21:14;;;;;;;1.47;0.40;;;11.90;99.90;;;;;;5036115;28;20030;-70
2022/06/01 07:23:43;;;;;;;1.07;0.50;;;11.80;99.90;;;;;;5034636;28;20035;-70
2022/06/01 07:26:14;;;;;;;1.63;0.43;;;11.80;99.90;;;;;;5036076;28;20033;-71
2022/06/01 07:28:41;;;;;;;3.25;0.50;;;11.80;99.90;;;;;;5036059;28;20021;-69
2022/06/01 07:31:09;;;;;;;0.80;0.45;;;11.70;99.90;;;;;;5036175;28;20432;-69
2022/06/01 07:33:36;;;;;;;1.60;0.55;;;11.70;99.90;;;;;;5035973;28;20018;-68
2022/06/01 07:36:06;;;;;;;1.38;0.40;;;11.60;99.90;;;;;;5035629;28;20118;-68
2022/06/01 07:44:33;;;;;;;;;;;11.60;99.90;;;;;;5036288;28;20040;-70
2022/06/01 07:47:00;;;;;;;4.93;0.50;;;11.90;99.90;;;;;;5035724;28;19905;-68
2022/06/01 07:49:28;;;;;;;2.08;0.60;;;11.60;99.90;;;;;;5036207;28;20044;-68
2022/06/01 07:51:55;;;;;;;2.03;0.55;;;11.60;99.90;;;;;;5034339;28;20466;-68
2022/06/01 07:54:24;;;;;;;1.45;0.45;;;11.50;99.90;;;;;;5035568;28;20021;-68
2022/06/01 07:56:51;;;;;;;2.45;0.50;;;11.50;99.90;;;;;;5034217;28;20640;-67
2022/06/01 07:59:18;;;;;;;0.80;0.30;;;11.50;99.90;;;;;;5035499;28;20045;-67
2022/06/01 08:01:45;;;;;;;1.35;0.50;;;11.40;99.90;;;;;;5035577;28;20030;-67
2022/06/01 08:04:14;;;;;;;1.52;0.40;;;11.40;99.90;;;;;;5035445;28;20022;-68
2022/06/01 08:06:41;;;;;;;1.95;0.60;;;11.40;99.90;;;;;;5035440;28;20096;-67
2022/06/01 08:09:09;;;;;;;1.85;0.50;;;11.40;99.90;;;;;;5033554;28;20017;-68
2022/06/01 08:14:21;;;;;;;2.50;0.50;;;11.30;99.90;;;;;;5035495;28;20037;-68
2022/06/01 08:16:49;;;;;;;1.73;0.70;;;11.40;99.90;;;;;;5035157;28;20026;-67
2022/06/01 08:19:17;;;;;;;1.83;0.50;;;11.30;99.90;;;;;;5035350;28;20029;-67
2022/06/01 08:21:45;;;;;;;2.38;0.70;;;11.40;99.90;;;;;;5035489;28;20064;-69
2022/06/01 08:24:14;;;;;;;3.45;0.77;;;11.40;99.90;;;;;;5033674;28;20025;-68
2022/06/01 08:26:41;;;;;;;2.70;0.60;;;11.30;99.90;;;;;;5035435;28;20028;-67
2022/06/01 08:29:09;;;;;;;0.95;0.40;;;11.40;99.90;;;;;;5033865;28;20392;-68
2022/06/01 08:31:36;;;;;;;2.03;0.60;;;11.40;99.90;;;;;;5033769;28;20017;-68
2022/06/01 08:34:05;;;;;;;1.83;0.63;;;11.30;99.90;;;;;;5035028;28;20025;-68
2022/06/01 08:36:33;;;;;;;1.42;0.57;;;11.30;99.90;;;;;;5034556;28;20150;-70
2022/06/01 08:39:01;;;;;;;3.05;0.50;;;11.20;99.90;;;;;;5033535;28;20079;-68
2022/06/01 08:41:35;;;;;;;1.73;0.50;;;11.10;99.90;;;;;;5033348;28;20030;-69
2022/06/01 08:44:30;;;;;;;2.03;0.60;;;11.10;99.90;;;;;;5033292;28;20029;-69
2022/06/01 08:47:03;;;;;;;1.08;0.43;;;11.00;99.90;;;;;;5033268;28;20021;-68
2022/06/01 08:49:33;;;;;;;2.60;0.85;;;11.00;99.90;;;;;;5033327;28;20035;-68
2022/06/01 08:52:01;;;;;;;0.50;0.40;;;10.90;99.90;;;;;;5034528;28;20393;-69
2022/06/01 08:54:29;;;;;;;3.50;0.60;;;10.90;99.90;;;;;;5034580;28;20029;-68
2022/06/01 08:57:48;;;;;;;0.90;0.68;;;10.90;99.90;;;;;;5034393;28;20095;-68
2022/06/01 09:00:20;;;;;;;1.73;0.65;;;10.90;99.90;;;;;;5011094;28;20042;-70
2022/06/01 09:03:11;;;;;;;1.05;0.60;;;10.90;99.90;;;;;;5034222;28;20507;-69
2022/06/01 09:05:49;;;;;;;1.42;0.90;;;10.90;99.90;;;;;;5032976;28;20060;-69
2022/06/01 09:08:23;;;;;;;0.95;0.55;;;10.90;99.90;;;;;;5034184;28;20037;-69
2022/06/01 09:11:02;;;;;;;2.35;0.70;;;10.90;99.90;;;;;;5032652;28;20108;-69
2022/06/01 09:13:53;;;;;;;2.60;0.60;;;10.90;99.90;;;;;;5032725;28;20057;-69
2022/06/01 09:16:31;;;;;;;2.28;0.60;;;11.00;99.90;;;;;;5025871;28;20048;-69
2022/06/01 09:18:59;;;;;;;0.75;0.60;;;11.00;99.90;;;;;;5033586;28;20034;-68
2022/06/01 09:24:26;;;;;;;1.10;0.50;;;10.90;99.90;;;;;;5033757;28;20043;-69
2022/06/01 09:27:04;;;;;;;2.47;0.73;;;10.90;99.90;;;;;;5033701;28;20022;-68
2022/06/01 09:29:34;;;;;;;1.85;0.50;;;10.90;99.90;;;;;;5033988;28;20017;-69
2022/06/01 09:32:05;;;;;;;2.35;0.70;;;10.90;99.90;;;;;;5032339;28;20026;-68
2022/06/01 09:34:38;;;;;;;;;;;10.90;99.90;;;;;;5034350;28;20021;-67
2022/06/01 09:37:23;;;;;;;2.22;0.98;;;10.90;99.90;;;;;;5032054;28;19990;-67
2022/06/01 09:40:04;;;;;;;2.35;0.90;;;10.80;99.90;;;;;;5033559;28;20029;-67
2022/06/01 09:42:41;;;;;;;2.00;0.55;;;10.80;99.90;;;;;;5033467;28;20021;-68
2022/06/01 09:45:26;;;;;;;1.90;0.60;;;10.70;99.90;;;;;;5033760;28;20017;-67
2022/06/01 09:48:08;;;;;;;1.98;0.68;;;10.60;99.90;;;;;;5032130;28;20141;-68
2022/06/01 09:50:36;;;;;;;1.58;0.70;;;10.60;99.90;;;;;;5032025;28;20031;-68
2022/06/01 09:53:20;;;;;;;2.50;0.80;;;10.50;99.90;;;;;;5031996;28;20511;-68
2022/06/01 09:55:59;;;;;;;0.90;0.40;;;10.50;99.90;;;;;;5032090;28;20037;-68
2022/06/01 10:07:22;;;;;;;1.85;0.60;;;10.30;99.90;;;;;;5033401;28;20020;-67
2022/06/01 10:09:56;;;;;;;2.25;0.65;;;10.40;99.90;;;;;;5033419;28;20092;-69
2022/06/01 10:12:23;;;;;;;1.92;0.50;;;10.40;99.90;;;;;;5033141;28;20018;-67
2022/06/01 10:14:56;;;;;;;1.73;0.90;;;10.40;99.90;;;;;;5033028;28;20493;-67
2022/06/01 10:17:33;;;;;;;1.45;0.70;;;10.40;99.90;;;;;;5033241;28;20025;-67
2022/06/01 10:20:14;;;;;;;1.75;0.52;;;10.40;99.90;;;;;;5031691;28;20061;-67
2022/06/01 10:22:56;;;;;;;1.60;0.70;;;10.40;99.90;;;;;;5031708;28;20386;-68
2022/06/01 10:25:39;;;;;;;1.38;0.63;;;10.40;99.90;;;;;;5032964;28;20036;-68
2022/06/01 10:28:31;;;;;;;3.08;0.90;;;10.40;99.90;;;;;;5031758;28;20029;-67
2022/06/01 10:31:02;;;;;;;2.35;0.82;;;10.30;99.90;;;;;;5034649;28;20087;-66
2022/06/01 10:33:47;;;;;;;1.90;0.63;;;10.40;99.90;;;;;;5035905;28;20033;-67
2022/06/01 10:36:48;;;;;;;1.15;0.70;;;10.40;99.90;;;;;;5036866;28;20116;-67
2022/06/01 10:39:30;;;;;;;1.05;0.68;;;10.40;99.90;;;;;;5037181;28;20392;-67
2022/06/01 10:42:16;;;;;;;2.08;0.82;;;10.40;99.90;;;;;;5037196;28;20370;-66
2022/06/01 10:45:02;;;;;;;2.88;0.65;;;10.40;99.90;;;;;;5036938;28;20053;-68
2022/06/01 10:47:33;;;;;;;1.10;0.32;;;10.30;99.90;;;;;;5037093;28;20029;-67
2022/06/01 10:50:32;;;;;;;1.55;0.52;;;10.30;99.90;;;;;;5037314;28;20013;-67
2022/06/01 10:53:17;;;;;;;2.50;0.70;;;10.20;99.90;;;;;;5035722;28;20040;-65
2022/06/01 10:55:45;;;;;;;2.00;0.50;;;10.20;99.90;;;;;;5037291;28;20029;-66
2022/06/01 10:58:24;;;;;;;1.55;0.50;;;10.30;99.90;;;;;;5036627;28;20482;-69
2022/06/01 11:01:41;;;;;;;1.27;0.60;;;10.30;99.90;;;;;;5035298;28;20028;-68
2022/06/01 11:04:28;;;;;;;1.40;0.63;;;10.30;99.90;;;;;;5011210;28;20044;-69
2022/06/01 11:07:14;;;;;;;0.93;0.30;;;10.20;99.90;;;;;;5036565;28;20026;-67
2022/06/01 11:10:08;;;;;;;2.00;0.95;;;10.30;99.90;;;;;;5035283;28;20068;-68
2022/06/01 11:13:03;;;;;;;0.98;0.30;;;10.30;99.90;;;;;;5036550;28;20028;-68
2022/06/01 11:15:39;;;;;;;0.73;0.40;;;10.30;99.90;;;;;;5035083;28;20040;-67
2022/06/01 11:18:26;;;;;;;1.38;0.40;;;10.30;99.90;;;;;;5036799;28;20473;-67
2022/06/01 11:21:30;;;;;;;0.65;0.40;;;10.30;99.90;;;;;;5034935;28;20106;-67
2022/06/01 11:24:15;;;;;;;1.63;0.40;;;10.30;99.90;;;;;;5036136;28;20026;-67
2022/06/01 11:27:03;;;;;;;0.85;0.30;;;10.30;99.90;;;;;;5036446;28;20022;-68
2022/06/01 11:29:46;;;;;;;1.40;0.40;;;10.30;99.90;;;;;;5034773;28;20507;-67
2022/06/01 11:32:18;;;;;;;1.27;0.40;;;10.40;99.90;;;;;;5035937;28;20083;-66
2022/06/01 11:35:12;;;;;;;2.50;0.55;;;10.30;99.90;;;;;;5034704;28;20045;-68
2022/06/01 11:37:49;;;;;;;1.05;0.40;;;10.30;99.90;;;;;;5035841;28;20057;-67
2022/06/01 11:40:48;;;;;;;1.42;0.40;;;10.30;99.90;;;;;;5035948;28;20478;-67
2022/06/01 11:43:30;;;;;;;0.60;0.30;;;10.30;99.90;;;;;;5021675;28;20119;-68
2022/06/01 11:46:02;;;;;;;0.77;0.40;;;10.20;99.90;;;;;;5036224;28;20089;-68
2022/06/01 11:48:44;;;;;;;0.95;0.40;;;10.30;99.90;;;;;;5036369;28;20017;-67
2022/06/01 11:51:18;;;;;;;2.40;0.52;;;10.20;99.90;;;;;;5034454;28;20025;-67
2022/06/01 11:54:05;;;;;;;1.50;0.40;;;10.20;99.90;;;;;;5035708;28;20385;-67
2022/06/01 11:56:52;;;;;;;0.82;0.40;;;10.20;99.90;;;;;;5035631;28;20389;-67
2022/06/01 11:59:28;;;;;;;0.90;0.50;;;10.30;99.90;;;;;;5035570;28;20025;-66
2022/06/01 12:01:59;;;;;;;1.35;0.50;;;10.30;99.90;;;;;;5034261;28;20029;-66
2022/06/01 12:04:41;;;;;;;0.60;0.43;;;10.20;99.90;;;;;;5034140;28;20045;-67
2022/06/01 12:07:31;;;;;;;1.55;0.40;;;10.10;99.90;;;;;;5034161;28;20022;-67
2022/06/01 12:10:06;;;;;;;1.23;0.40;;;10.10;99.90;;;;;;5034148;28;20025;-67
2022/06/01 12:12:34;;;;;;;1.98;0.63;;;10.00;99.90;;;;;;5033992;28;20056;-67
2022/06/01 12:15:01;;;;;;;1.08;0.40;;;10.00;99.90;;;;;;5035502;28;20474;-67
2022/06/01 12:17:32;;;;;;;0.88;0.28;;;10.00;99.90;;;;;;5035217;28;20017;-67
2022/06/01 12:20:40;;;;;;;0.93;0.60;;;10.00;99.90;;;;;;5033839;28;20030;-66
2022/06/01 12:29:35;;;;;;;2.17;0.43;;;10.10;99.90;;;;;;5035269;28;20027;-67
2022/06/01 12:32:08;;;;;;;1.98;0.60;;;10.00;99.90;;;;;;5035241;28;20085;-67
2022/06/01 12:34:42;;;;;;;0.80;0.30;;;10.00;99.90;;;;;;5033527;28;20057;-67
2022/06/01 12:37:29;;;;;;;1.08;0.47;;;10.00;99.90;;;;;;5034669;28;20046;-66
2022/06/01 12:40:12;;;;;;;0.82;0.50;;;10.00;99.90;;;;;;5034758;28;20021;-66
2022/06/01 12:42:55;;;;;;;4.80;0.60;;;9.90;99.90;;;;;;5033449;28;20124;-67
2022/06/01 12:45:40;;;;;;;1.23;0.40;;;9.90;99.90;;;;;;5034584;28;20076;-66
2022/06/01 12:48:24;;;;;;;0.82;0.50;;;9.90;99.90;;;;;;5035044;28;20574;-66
2022/06/01 12:51:04;;;;;;;1.05;0.40;;;9.90;99.90;;;;;;5035107;28;20070;-67
2022/06/01 12:53:53;;;;;;;3.10;0.70;;;9.90;99.90;;;;;;5034854;28;20108;-66
2022/06/01 12:56:27;;;;;;;1.13;0.40;;;9.90;99.90;;;;;;5034519;28;20029;-66
2022/06/01 12:58:56;;;;;;;1.58;0.50;;;10.00;99.90;;;;;;5034450;28;20113;-66
2022/06/01 13:01:30;;;;;;;0.70;0.45;;;10.00;99.90;;;;;;5034360;28;20021;-66
2022/06/01 13:03:59;;;;;;;0.95;0.50;;;10.00;99.90;;;;;;5032917;28;20029;-65
2022/06/01 13:06:28;;;;;;;1.27;0.40;;;10.00;99.90;;;;;;5034248;28;20028;-66
2022/06/01 13:09:08;;;;;;;0.80;0.32;;;10.00;99.90;;;;;;5034820;28;20109;-66
2022/06/01 13:11:37;;;;;;;1.33;0.60;;;10.00;99.90;;;;;;5032897;28;20017;-66
2022/06/01 13:14:10;;;;;;;0.93;0.40;;;10.00;99.90;;;;;;5032778;28;20034;-65
2022/06/01 13:16:45;;;;;;;2.50;0.73;;;9.90;99.90;;;;;;5034130;28;20482;-65
2022/06/01 13:19:21;;;;;;;1.30;0.50;;;9.90;99.90;;;;;;5034195;28;20053;-66
2022/06/01 13:21:55;;;;;;;1.80;0.50;;;9.90;99.90;;;;;;5032883;28;20025;-65
2022/06/01 13:24:25;;;;;;;0.63;0.40;;;9.90;99.90;;;;;;5034074;28;20385;-65
2022/06/01 13:26:57;;;;;;;1.13;0.47;;;9.80;99.90;;;;;;5034057;28;20501;-65
2022/06/01 13:29:35;;;;;;;1.05;0.40;;;9.90;99.90;;;;;;5032571;28;20079;-65
2022/06/01 13:32:10;;;;;;;0.70;0.40;;;9.90;99.90;;;;;;5034013;28;20028;-65
2022/06/01 13:34:44;;;;;;;1.75;0.50;;;9.90;99.90;;;;;;5034283;28;20163;-65
2022/06/01 13:37:27;;;;;;;0.73;0.40;;;9.90;99.90;;;;;;5033803;28;20046;-65
2022/06/01 13:39:56;;;;;;;1.10;0.50;;;9.90;99.90;;;;;;5032840;28;20140;-66
2022/06/01 13:42:36;;;;;;;1.60;0.65;;;9.80;99.90;;;;;;5033778;28;20104;-66
2022/06/01 13:45:16;;;;;;;1.42;0.60;;;9.80;99.90;;;;;;5033914;28;20384;-66
2022/06/01 13:47:55;;;;;;;3.25;0.70;;;9.80;99.90;;;;;;5033696;28;20029;-67
2022/06/01 13:50:29;;;;;;;1.55;0.45;;;9.70;99.90;;;;;;5033608;28;20018;-67
2022/06/01 13:52:56;;;;;;;0.77;0.50;;;9.70;99.90;;;;;;5034013;28;20013;-67
2022/06/01 13:55:29;;;;;;;2.90;0.80;;;9.60;99.90;;;;;;5032288;28;20025;-66
2022/06/01 13:58:09;;;;;;;0.60;0.47;;;9.60;99.90;;;;;;5032230;28;20040;-65
2022/06/01 14:00:42;;;;;;;1.08;0.50;;;9.60;99.90;;;;;;5033742;28;20040;-65
2022/06/01 14:03:55;;;;;;;1.17;0.50;;;9.70;99.90;;;;;;5033358;28;20057;-66
2022/06/01 14:06:44;;;;;;;0.82;0.43;;;9.70;99.90;;;;;;5032842;28;20101;-66
2022/06/01 14:09:15;;;;;;;1.95;0.70;;;9.80;99.90;;;;;;5033729;28;20037;-66
2022/06/01 14:11:43;;;;;;;1.10;0.43;;;9.90;99.90;;;;;;5033493;28;20022;-67
2022/06/01 14:14:13;;;;;;;1.13;0.40;;;9.90;99.90;;;;;;5033925;28;20457;-67
2022/06/01 14:16:49;;;;;;;0.75;0.30;;;9.80;99.90;;;;;;5033432;28;20163;-67
2022/06/01 14:19:17;;;;;;;2.03;0.50;;;9.80;99.90;;;;;;5033578;28;20029;-66
2022/06/01 14:21:47;;;;;;;0.85;0.45;;;9.80;99.90;;;;;;5033455;28;20025;-66
2022/06/01 14:24:15;;;;;;;0.93;0.40;;;9.80;99.90;;;;;;5033891;28;20025;-66